Flight Track Log - Related Links

Times and Time Zones

All times are in EDT time to prevent confusion due to time zone crossing. See the SKW4496 flight status page for this flight to view local times or setup timezone preferences in your user account.

Time Position Orientation Groundspeed Altitude Reporting Facility
EDT Latitude Longitude Course Direction KTS MPH feet Rate Location/Type
Mon 04:11:13 PM 41.3206 -95.9000 44° Northeast 148 170 1,700  Level Minneapolis Center
Mon 04:11:55 PM 41.3467 -95.8942 10° North 162 186 2,900 2,250 Climbing Minneapolis Center
Mon 04:12:57 PM 41.4103 -95.8514 27° Northeast 220 253 5,600 2,855 Climbing Minneapolis Center
Mon 04:13:59 PM 41.4708 -95.8017 32° Northeast 239 275 8,800 2,779 Climbing Minneapolis Center
Mon 04:14:00 PM 41.6082 -95.5235 42° Northeast  Level FlightAware Approximate
Mon 04:15:00 PM 41.6845 -95.4316 48° Northeast  Level FlightAware Approximate
Mon 04:15:13 PM 41.5431 -95.7200 40° Northeast 270 311 11,900  Level Minneapolis Center
Mon 04:16:00 PM 41.7559 -95.3331 44° Northeast  Level FlightAware Approximate
Mon 04:16:15 PM 41.6039 -95.6394 45° Northeast 301 346 14,800  Level Minneapolis Center
Mon 04:17:17 PM 41.6672 -95.5564 44° Northeast 313 360 17,500 2,371 Climbing Minneapolis Center
Mon 04:18:19 PM 41.7328 -95.4700 45° Northeast 328 377 19,700 2,304 Climbing Minneapolis Center
Mon 04:19:22 PM 41.8144 -95.3631 44° Northeast 341 392 22,300 2,160 Climbing Minneapolis Center
Mon 04:20:24 PM 41.8856 -95.2694 44° Northeast 354 407 24,200 1,306 Climbing Minneapolis Center
Mon 04:21:26 PM 41.9600 -95.1714 44° Northeast 371 427 25,000 387 Climbing Minneapolis Center
Mon 04:22:28 PM 42.0389 -95.0667 45° Northeast 393 452 25,000  Level Minneapolis Center
Mon 04:23:30 PM 42.1192 -94.9594 45° Northeast 404 465 25,000  Level Minneapolis Center
Mon 04:24:32 PM 42.2025 -94.8486 45° Northeast 417 480 25,000  Level Minneapolis Center
Mon 04:25:46 PM 42.3017 -94.7156 45° Northeast 420 483 25,000  Level Minneapolis Center
Mon 04:26:49 PM 42.4025 -94.5786 45° Northeast 426 490 25,000  Level Minneapolis Center
Mon 04:27:51 PM 42.4778 -94.4761 45° Northeast 426 490 25,000  Level Minneapolis Center
Mon 04:28:53 PM 42.5736 -94.3450 45° Northeast 411 473 25,000  Level Minneapolis Center
Mon 04:29:54 PM 42.6325 -94.2681 44° Northeast 381 438 25,000  Level Minneapolis Center
Mon 04:30:57 PM 42.7256 -94.1683 38° Northeast 361 415 25,000  Level Minneapolis Center
Mon 04:31:59 PM 42.8033 -94.0831 39° Northeast 361 415 25,000  Level Minneapolis Center
Mon 04:33:01 PM 42.8811 -93.9981 39° Northeast 360 414 25,000  Level Minneapolis Center
Mon 04:34:03 PM 42.9731 -93.8969 39° Northeast 356 410 25,000  Level Minneapolis Center
Mon 04:35:17 PM 43.0514 -93.8203 36° Northeast 352 405 25,000  Level Minneapolis Center
Mon 04:36:20 PM 43.1656 -93.7856 13° North 354 407 25,000  Level Minneapolis Center
Mon 04:37:22 PM 43.2611 -93.7589 11° North 354 407 25,000  Level Minneapolis Center
Mon 04:38:24 PM 43.3583 -93.7297 12° North 357 411 25,000  Level Minneapolis Center
Mon 04:39:26 PM 43.4742 -93.6942 13° North 357 411 25,000  Level Minneapolis Center
Mon 04:40:28 PM 43.5617 -93.6683 12° North 358 412 25,000  Level Minneapolis Center
Mon 04:41:30 PM 43.6589 -93.6383 13° North 357 411 25,000 -1,258 Level Minneapolis Center
Mon 04:42:32 PM 43.7756 -93.6031 12° North 358 412 22,400 -2,565 Descending Minneapolis Center
Mon 04:43:34 PM 43.8700 -93.5739 13° North 351 404 19,700 -2,250 Descending Minneapolis Center
Mon 04:44:48 PM 43.9628 -93.5458 12° North 344 396 17,300 -2,365 Descending Minneapolis Center
Mon 04:45:51 PM 44.0689 -93.5131 13° North 321 369 14,300 -2,323 Descending Minneapolis Center
Mon 04:46:52 PM 44.1342 -93.4933 12° North 305 351 12,500 -1,597 Descending Minneapolis Center
Mon 04:47:55 PM 44.2400 -93.4561 14° North 280 322 11,000 -768 Descending Minneapolis Center
Mon 04:48:57 PM 44.3103 -93.4081 26° Northeast 281 323 10,900 -532 Descending Minneapolis Center
Mon 04:49:59 PM 44.3814 -93.3700 21° North 277 319 9,900 -1,258 Descending Minneapolis Center
Mon 04:51:01 PM 44.4511 -93.3328 21° North 269 310 8,300 -1,403 Descending Minneapolis Center
Mon 04:52:03 PM 44.5206 -93.2956 21° North 268 308 7,000 -1,056 Descending Minneapolis Center
Mon 04:53:06 PM 44.5928 -93.2561 21° North 228 262 6,100 -1,008 Descending Minneapolis Center
Mon 04:54:08 PM 44.6500 -93.2253 21° North 221 254 4,900 -1,065 Descending Minneapolis Center
Mon 04:55:10 PM 44.7011 -93.1986 20° North 202 232 3,900 -871 Descending Minneapolis Center
Mon 04:56:12 PM 44.7478 -93.2078 352° North 178 205 3,100 -774 Descending Minneapolis Center

Login

Don't have an account? Register now (free) for customized features, flight alerts, and more!